CheckWX is a tool to help pilots better visualize weather data.  It is not intended as a substitute for an official pre-flight weather briefing.

17:29:58 UTC

CYBR METAR
Brandon Municipal Airport
Brandon, Canada
Current

30 mins ago

CYBR 241700Z 07014G20KT 15SM SCT250 M08/M14 A3044 RMK CI3 SLP339
Observed
Mar-24 @ 17:00 UTC
Wind
  • 070° at 14 KTS
  • Gusting to 20 KTS
Visibility
15 SM
Flight Rules
VFR
Cloud Levels
  • Scattered at 25,000' AGL
Temperature
-8°C / 18°F
Dewpoint
-14°C / 7°F
Humidity
62%
Altimeter
30.44" Hg
Pressure
1033.9 hPa
Previous

1 hour ago

CYBR 241600Z 06014G21KT 15SM SCT250 M08/M14 A3043 RMK CI3 SLP336
Observed
Mar-24 @ 16:00 UTC
Wind
  • 060° at 14 KTS
  • Gusting to 21 KTS
Visibility
15 SM
Flight Rules
VFR
Cloud Levels
  • Scattered at 25,000' AGL
Temperature
-8°C / 18°F
Dewpoint
-14°C / 7°F
Humidity
62%
Altimeter
30.43" Hg
Pressure
1033.6 hPa
Previous

2 hours ago

CYBR 241500Z 06016KT 15SM FEW250 M09/M14 A3042 RMK CI2 SLP334
Observed
Mar-24 @ 15:00 UTC
Wind
  • 060° at 16 KTS
Visibility
15 SM
Flight Rules
VFR
Cloud Levels
  • Few at 25,000' AGL
Temperature
-9°C / 16°F
Dewpoint
-14°C / 7°F
Humidity
67%
Altimeter
30.42" Hg
Pressure
1033.4 hPa